Main page
METAR-TAF:

METAR-TAF

Airports :

Damascus International Airport

Damascus, Syria

latitude: 33-25N, longitude: 036-31E, elevation: 608 m

Current weather observation

The report was made 1 hour and 2 minutes ago, at 18:00 UTC
Wind 8 kt from the North/Northeast
Temperature 14°C
Humidity 55%
Pressure 1020 hPa
Visibility 10 km or more
no clouds below 1500 m and no cumulonimbus

METAR: OSDI 041800Z 02008KT CAVOK 14/05 Q1020

Time: 22:02 (19:02 UTC)

Forecast

Forecast valid from 04 at 18 UTC to 05 at 24 UTC
Wind 10 kt from the Southwest
Visibility 10 km or more
no clouds below 1500 m and no cumulonimbus
Becoming
from 05 at 00 UTC to 05 at 06 UTC
Wind 3 kt from variable directions
Visibility: 4000 m
mist
Probability 30% :
Temporary
from 05 at 02 UTC to 05 at 06 UTC
Few clouds at a height of 700 ft

TAF: OSDI 0418/0524 22010KT CAVOK BECMG 0500/0506 VRB03KT 4000 BR PROB30 TEMPO 0502/0506 0200FG FEW007

Weather observations and forecasts of more than 4000 airports (METAR and TAF reports).

The available stations are represented by yellow and red dots on the map.

Hover mouse over dot to see the name of the station.

Then click to see weather observations and forecasts.

To change the map : click on the green buttons with a black cross to zoom in, on the green button with a dash to zoom out, or on the green arrows for adjacent maps.


METAR-TAF: